Coral Topaz — 3ELB7 — position and weather

sailwx.info

Track history (hours):
 
Tides and Currents Weather Stations Pressure Air Temp Water Temp Dewpoint Dewpoint Depression Visibility Wind Speed Wind Dir Waves Ship Positions

Coral Topaz

Last reported at 2016-Aug-06 14:06 UTC. Time now 2016-Aug-23 21:05 UTC.
Position N 34°39' E 141°26'.
Warning: this ship's position is 17 days out of date.

Length 225 m; draft 9.3 m.

Type: Ship. MMSI: 372904000.

Date/timePositionNaut miles runAvg speedWind from/ knotsBaromVisibWave heightAir tempDewpointWater temp
2016-Aug-06 14:06N 34°39' E 141°26'911.2
2016-Aug-06 13:18N 34°48' E 141°27'911.6
2016-Aug-06 12:32N 34°57' E 141°27'1211.9
2016-Aug-06 11:29N 35°09' E 141°24'1312.7
2016-Aug-06 10:30N 35°21' E 141°20'1213.1
2016-Aug-06 09:33N 35°33' E 141°15'1313.1
2016-Aug-06 08:33N 35°45' E 141°10'1313.5
2016-Aug-06 07:33N 35°58' E 141°05'3913.2
2016-Aug-06 04:34N 36°37' E 140°57'  
2016-Jul-28 21:11N 36°53' E 140°54'  
Track history (hours):
 
Tides and Currents Weather Stations Pressure Air Temp Water Temp Dewpoint Dewpoint Depression Visibility Wind Speed Wind Dir Waves Ship Positions

Coral Topaz

Last reported at 2016-Aug-06 14:06 UTC. Time now 2016-Aug-23 21:05 UTC.
Position N 34°39' E 141°26'.
Warning: this ship's position is 17 days out of date.

Length 225 m; draft 9.3 m.

Type: Ship. MMSI: 372904000.

Date/timePositionNaut miles runAvg speedWind from/ knotsBaromVisibWave heightAir tempDewpointWater temp
2016-Aug-06 14:06N 34°39' E 141°26'911.2
2016-Aug-06 13:18N 34°48' E 141°27'911.6
2016-Aug-06 12:32N 34°57' E 141°27'1211.9
2016-Aug-06 11:29N 35°09' E 141°24'1312.7
2016-Aug-06 10:30N 35°21' E 141°20'1213.1
2016-Aug-06 09:33N 35°33' E 141°15'1313.1
2016-Aug-06 08:33N 35°45' E 141°10'1313.5
2016-Aug-06 07:33N 35°58' E 141°05'3913.2
2016-Aug-06 04:34N 36°37' E 140°57'  
2016-Jul-28 21:11N 36°53' E 140°54'  

Dump ship's entire track history